Time;durP1;ratioP1;P1;durP2;ratioP2;P2;SDS_P1;SDS_P2;PMS_P1;PMS_P2;Temp;Humidity;BMP_temperature;BMP_pressure;BME280_temperature;BME280_humidity;BME280_pressure;Samples;Min_cycle;Max_cycle;Signal;HPM_P1;HPM_P2
2022/02/13 00:02:14;;;;;;;4.22;0.70;;;;;;;0.26;52.00;99996.13;5071160;28;20094;-54
2022/02/13 00:04:39;;;;;;;2.15;0.68;;;;;;;0.26;51.85;99989.06;5071203;28;20032;-54
2022/02/13 00:07:05;;;;;;;1.70;0.80;;;;;;;0.26;52.34;99993.47;5048745;28;20056;-52
2022/02/13 00:09:31;;;;;;;2.78;0.95;;;;;;;0.25;52.59;99984.72;5050791;28;20032;-54
2022/02/13 00:12:00;;;;;;;0.93;0.70;;;;;;;0.23;52.63;99996.19;5050098;28;20037;-53
2022/02/13 00:14:27;;;;;;;5.10;0.80;;;;;;;-0.01;52.51;99954.00;5050572;28;20463;-57
2022/02/13 00:16:53;;;;;;;4.25;0.80;;;;;;;0.21;52.65;99992.75;5050335;28;20466;-51
2022/02/13 00:19:18;;;;;;;3.08;1.00;;;;;;;0.20;52.75;99998.94;5067666;28;20044;-52
2022/02/13 00:21:44;;;;;;;2.08;0.77;;;;;;;0.23;52.87;99985.66;5070510;28;20040;-55
2022/02/13 00:24:09;;;;;;;2.83;0.50;;;;;;;0.21;53.17;99993.63;5070350;28;20075;-55
2022/02/13 00:26:36;;;;;;;2.60;0.93;;;;;;;0.21;53.10;99985.72;5070012;28;20389;-54
2022/02/13 00:29:01;;;;;;;2.60;1.00;;;;;;;0.24;53.09;99984.75;5070495;28;20055;-54
2022/02/13 00:31:27;;;;;;;1.90;0.90;;;;;;;0.25;53.15;99987.34;5070155;28;20112;-54
2022/02/13 00:33:53;;;;;;;3.55;0.68;;;;;;;0.26;53.28;99986.44;5052459;28;20021;-57
2022/02/13 00:36:18;;;;;;;1.65;0.70;;;;;;;0.26;53.28;99981.16;5052427;28;20032;-52
2022/02/13 00:38:45;;;;;;;1.52;0.70;;;;;;;0.32;53.27;99980.09;5070777;28;20086;-55
2022/02/13 00:41:11;;;;;;;2.17;0.70;;;;;;;0.20;53.37;99968.22;5070321;28;20070;-52
2022/02/13 00:43:36;;;;;;;3.58;0.73;;;;;;;0.11;53.92;99958.88;5069897;28;20112;-51
2022/02/13 00:46:02;;;;;;;3.10;0.70;;;;;;;0.20;53.64;99975.25;5071362;28;20033;-53
2022/02/13 00:48:28;;;;;;;2.20;0.82;;;;;;;0.18;53.59;99967.41;5073827;28;20379;-55
2022/02/13 00:50:53;;;;;;;4.05;0.70;;;;;;;0.17;54.04;99970.09;5073739;28;20040;-49
2022/02/13 00:53:19;;;;;;;2.67;0.93;;;;;;;0.30;54.44;99979.28;5056728;28;20024;-48
2022/02/13 00:55:44;;;;;;;3.13;0.90;;;;;;;0.32;53.86;99972.19;5073217;28;20029;-53
2022/02/13 00:58:09;;;;;;;2.20;0.57;;;;;;;0.33;53.83;99973.91;5073802;28;20032;-51
2022/02/13 01:00:35;;;;;;;3.25;0.73;;;;;;;0.31;54.03;99973.09;5074145;28;20112;-57
2022/02/13 01:03:00;;;;;;;2.15;0.70;;;;;;;0.37;53.73;99975.50;5074154;28;20464;-54
2022/02/13 01:05:26;;;;;;;5.70;1.17;;;;;;;0.38;54.13;99987.75;5073580;28;20115;-56
2022/02/13 01:07:51;;;;;;;3.03;0.50;;;;;;;0.39;54.30;99978.94;5073288;28;20500;-54
2022/02/13 01:10:17;;;;;;;1.77;0.60;;;;;;;0.29;54.38;99969.66;5074169;28;20111;-55
2022/02/13 01:12:42;;;;;;;4.68;0.90;;;;;;;0.46;54.41;99984.84;5073905;28;20033;-54
2022/02/13 01:15:08;;;;;;;2.70;0.98;;;;;;;0.30;54.59;99949.44;5073483;28;20029;-56
2022/02/13 01:17:34;;;;;;;3.55;1.15;;;;;;;0.47;54.53;99981.31;5074090;28;20052;-54
2022/02/13 01:19:59;;;;;;;2.65;0.77;;;;;;;0.53;54.49;99981.06;5073438;28;20037;-56
2022/02/13 01:22:25;;;;;;;2.30;0.70;;;;;;;0.57;54.59;99989.75;5055381;28;20556;-54
2022/02/13 01:24:50;;;;;;;1.92;0.68;;;;;;;0.59;54.57;99974.72;5073123;28;20074;-57
2022/02/13 01:27:16;;;;;;;3.38;0.80;;;;;;;0.60;54.57;99976.44;5073665;28;20386;-56
2022/02/13 01:29:42;;;;;;;2.67;0.68;;;;;;;0.59;54.59;99971.22;5073653;28;20111;-54
2022/02/13 01:32:08;;;;;;;3.67;0.80;;;;;;;0.57;54.76;99980.03;5073231;28;20648;-56
2022/02/13 01:34:34;;;;;;;2.72;0.85;;;;;;;0.59;54.94;99985.28;5072850;28;20474;-56
2022/02/13 01:36:59;;;;;;;2.05;0.90;;;;;;;0.63;54.61;99975.50;5073231;28;20158;-54
2022/02/13 01:39:25;;;;;;;2.30;0.70;;;;;;;0.61;54.99;99972.91;5055530;28;20067;-55
2022/02/13 01:41:51;;;;;;;2.88;0.70;;;;;;;0.63;55.10;99989.50;5073029;28;20032;-53
2022/02/13 01:44:28;;;;;;;2.58;0.60;;;;;;;0.75;55.03;99989.97;5072507;28;20394;-54
2022/02/13 01:46:55;;;;;;;4.05;0.90;;;;;;;0.72;55.16;99980.41;5072927;28;20089;-57
2022/02/13 01:49:21;;;;;;;5.28;0.82;;;;;;;0.77;54.58;99978.44;5073412;28;20028;-55
2022/02/13 01:51:46;;;;;;;2.75;0.73;;;;;;;0.82;54.90;99989.66;5073226;28;20057;-54
2022/02/13 01:54:12;;;;;;;1.83;0.68;;;;;;;0.61;54.91;99943.91;5072580;28;20033;-52
2022/02/13 01:56:38;;;;;;;3.58;0.98;;;;;;;0.84;55.01;99972.03;5073080;28;20025;-55
2022/02/13 01:59:05;;;;;;;2.67;0.80;;;;;;;0.83;55.02;99980.00;5071802;28;20063;-55
2022/02/13 02:01:31;;;;;;;1.98;0.50;;;;;;;0.84;55.35;99981.72;5054981;28;20068;-55
2022/02/13 02:03:56;;;;;;;2.20;1.10;;;;;;;0.88;55.44;99993.84;5072508;28;20067;-55
2022/02/13 02:06:22;;;;;;;3.50;0.90;;;;;;;0.88;55.40;99967.50;5072631;28;20090;-53
2022/02/13 02:08:48;;;;;;;2.20;0.68;;;;;;;0.89;55.11;99969.22;5072667;28;20466;-57
2022/02/13 02:11:13;;;;;;;6.38;1.00;;;;;;;0.98;55.15;99982.06;5071624;28;20024;-55
2022/02/13 02:13:39;;;;;;;4.18;0.80;;;;;;;0.96;55.16;99970.69;5072337;28;20078;-53
2022/02/13 02:16:05;;;;;;;2.22;0.80;;;;;;;1.01;55.34;99967.88;5072406;28;20524;-55
2022/02/13 02:18:30;;;;;;;5.25;0.80;;;;;;;1.10;54.97;99985.13;5071647;28;20048;-55
2022/02/13 02:21:02;;;;;;;3.40;0.82;;;;;;;1.11;55.16;99976.28;5072209;28;20439;-54
2022/02/13 02:23:28;;;;;;;2.28;0.80;;;;;;;1.11;55.15;99981.56;5071716;28;20020;-54
2022/02/13 02:25:54;;;;;;;3.08;0.77;;;;;;;1.10;54.76;99971.94;5072302;28;20427;-52
2022/02/13 02:28:19;;;;;;;3.28;0.93;;;;;;;1.13;55.15;99982.38;5072327;28;20169;-49
2022/02/13 02:30:45;;;;;;;4.00;0.82;;;;;;;0.92;55.21;99952.44;5071822;28;20029;-53
2022/02/13 02:33:12;;;;;;;2.30;0.80;;;;;;;1.11;55.59;99981.56;5072271;28;20428;-55
2022/02/13 02:35:38;;;;;;;7.13;1.05;;;;;;;1.17;55.52;99988.41;5072066;28;20275;-53
2022/02/13 02:38:03;;;;;;;3.13;1.00;;;;;;;1.20;55.18;99993.53;5053105;28;20503;-57
2022/02/13 02:40:29;;;;;;;5.13;0.80;;;;;;;1.16;55.31;99984.88;5072366;28;20028;-56
2022/02/13 02:42:55;;;;;;;3.80;1.17;;;;;;;1.23;55.06;100001.34;5053871;28;20028;-50
2022/02/13 02:45:20;;;;;;;1.80;0.68;;;;;;;1.26;55.22;99999.44;5071552;28;20037;-54
2022/02/13 02:47:46;;;;;;;5.97;1.00;;;;;;;1.27;55.16;99982.69;5072054;28;20377;-54
2022/02/13 02:50:13;;;;;;;2.53;0.65;;;;;;;1.34;55.14;100006.19;5053343;28;20032;-54
2022/02/13 02:52:38;;;;;;;2.80;0.77;;;;;;;1.35;55.25;100005.28;5071505;28;20501;-55
2022/02/13 02:55:05;;;;;;;3.67;0.88;;;;;;;1.36;54.90;99993.78;5053799;28;20115;-54
2022/02/13 02:57:31;;;;;;;3.13;1.08;;;;;;;1.34;55.04;99988.59;5072058;28;20075;-54
2022/02/13 02:59:56;;;;;;;2.40;0.70;;;;;;;1.37;54.91;99993.75;5036606;28;20074;-49
2022/02/13 03:02:22;;;;;;;6.47;1.35;;;;;;;1.39;54.97;99997.19;5070889;28;20036;-48
2022/02/13 03:04:47;;;;;;;4.38;1.05;;;;;;;1.42;55.00;99994.41;5053826;28;20032;-55
2022/02/13 03:07:13;;;;;;;5.30;0.98;;;;;;;1.46;55.15;99996.94;5071430;28;20033;-55
2022/02/13 03:09:38;;;;;;;5.63;0.95;;;;;;;1.41;55.28;100002.38;5071075;28;20032;-57
2022/02/13 03:12:04;;;;;;;4.13;0.95;;;;;;;1.44;55.09;100004.88;5070972;28;20035;-53
2022/02/13 03:14:30;;;;;;;6.63;0.82;;;;;;;1.43;55.02;99998.78;5071662;28;20432;-55
2022/02/13 03:16:55;;;;;;;3.30;1.13;;;;;;;1.49;54.86;100000.31;5071128;28;20098;-53
2022/02/13 03:19:21;;;;;;;3.30;0.80;;;;;;;1.48;55.24;100006.50;5070877;28;20481;-56
2022/02/13 03:21:46;;;;;;;1.77;0.60;;;;;;;1.46;55.07;99997.81;5070682;28;20051;-52
2022/02/13 03:24:12;;;;;;;1.85;0.80;;;;;;;1.47;54.94;100004.78;5071389;28;20036;-55
2022/02/13 03:26:37;;;;;;;3.58;0.60;;;;;;;1.41;55.07;99990.06;5071361;28;20032;-52
2022/02/13 03:29:03;;;;;;;2.20;0.40;;;;;;;1.51;55.29;100006.38;5070797;28;20111;-56
2022/02/13 03:31:29;;;;;;;2.67;0.70;;;;;;;1.55;55.24;100007.09;5071105;28;20428;-53
2022/02/13 03:33:55;;;;;;;4.03;0.90;;;;;;;1.27;55.24;99964.22;5071108;28;20028;-54
2022/02/13 03:36:21;;;;;;;4.00;0.90;;;;;;;1.28;55.10;99962.44;5070902;28;20024;-56
2022/02/13 03:38:47;;;;;;;3.00;0.73;;;;;;;1.47;54.63;100002.16;5070928;28;20078;-55
2022/02/13 03:41:12;;;;;;;2.42;0.90;;;;;;;1.54;54.95;100022.09;5071220;28;20024;-54
2022/02/13 03:43:38;;;;;;;1.70;0.88;;;;;;;1.46;55.09;100008.34;5070966;28;20385;-52
2022/02/13 03:46:03;;;;;;;2.10;0.77;;;;;;;1.54;55.19;100019.44;5071144;28;20035;-54
2022/02/13 03:48:29;;;;;;;3.90;1.20;;;;;;;1.54;55.26;100011.53;5070830;28;20529;-53
2022/02/13 03:50:54;;;;;;;2.47;0.70;;;;;;;1.57;55.54;100016.69;5070599;28;20024;-56
2022/02/13 03:53:20;;;;;;;1.70;0.63;;;;;;;1.61;54.96;100011.28;5070834;28;20036;-54
2022/02/13 03:55:46;;;;;;;5.13;0.80;;;;;;;1.62;54.63;100013.00;5071016;28;20437;-49
2022/02/13 03:58:11;;;;;;;4.07;0.70;;;;;;;1.64;54.51;100016.44;5070653;28;20029;-51
2022/02/13 04:00:37;;;;;;;3.08;0.90;;;;;;;1.42;54.80;99988.25;5052761;28;20473;-48
2022/02/13 04:03:02;;;;;;;2.33;0.73;;;;;;;1.59;55.51;100014.00;5071065;28;20029;-56
2022/02/13 04:05:28;;;;;;;5.95;0.93;;;;;;;1.66;55.13;100018.09;5069992;28;20035;-57
2022/02/13 04:07:53;;;;;;;2.22;0.90;;;;;;;1.61;55.13;100017.44;5070481;28;20488;-55
2022/02/13 04:10:19;;;;;;;2.83;0.88;;;;;;;1.61;54.83;100022.72;5070265;28;20039;-53
2022/02/13 04:12:44;;;;;;;3.50;1.02;;;;;;;1.61;55.10;100021.84;5070651;28;20040;-51
2022/02/13 04:15:11;;;;;;;4.63;0.82;;;;;;;1.64;55.02;100025.22;5070100;28;20037;-55
2022/02/13 04:17:37;;;;;;;1.67;0.80;;;;;;;1.67;55.02;100027.72;5070235;28;20102;-55
2022/02/13 04:20:04;;;;;;;3.60;0.93;;;;;;;1.69;54.92;100025.03;5070228;28;20045;-54
2022/02/13 04:22:30;;;;;;;2.78;0.70;;;;;;;1.70;54.26;100034.69;5055582;28;20032;-52
2022/02/13 04:24:56;;;;;;;2.78;0.77;;;;;;;1.68;54.73;100013.63;5074063;28;20024;-56
2022/02/13 04:27:21;;;;;;;4.18;0.82;;;;;;;1.75;54.12;100024.78;5074261;28;20335;-52
2022/02/13 04:29:47;;;;;;;4.38;0.95;;;;;;;1.75;54.35;100029.19;5074614;28;20083;-54
2022/02/13 04:32:12;;;;;;;3.88;0.75;;;;;;;1.74;54.82;100028.34;5074500;28;20032;-53
2022/02/13 04:34:38;;;;;;;3.05;0.75;;;;;;;1.74;54.61;100038.03;5074157;28;20036;-55
2022/02/13 04:37:04;;;;;;;2.42;0.80;;;;;;;1.64;54.23;100024.34;5074100;28;20108;-50
2022/02/13 04:39:29;;;;;;;3.05;0.70;;;;;;;1.69;54.34;100022.41;5074197;28;20111;-56
2022/02/13 04:41:55;;;;;;;3.28;0.75;;;;;;;1.75;54.29;100038.00;5074329;28;20067;-51
2022/02/13 04:44:20;;;;;;;5.22;0.73;;;;;;;1.79;54.17;100036.06;5074327;28;20035;-51
2022/02/13 04:46:46;;;;;;;2.03;0.80;;;;;;;1.79;54.46;100034.28;5074329;28;20074;-53
2022/02/13 04:49:11;;;;;;;3.10;0.80;;;;;;;1.84;54.22;100045.53;5073760;28;20155;-55
2022/02/13 04:51:37;;;;;;;3.47;1.05;;;;;;;1.89;53.78;100032.13;5074292;28;20028;-55
2022/02/13 04:54:02;;;;;;;2.55;0.70;;;;;;;1.84;53.97;100032.31;5073936;28;20040;-52
2022/02/13 04:56:28;;;;;;;3.67;0.68;;;;;;;1.72;54.33;100035.47;5073262;28;20101;-55
2022/02/13 04:58:53;;;;;;;3.75;0.73;;;;;;;1.79;54.17;100039.56;5074076;28;20028;-55
2022/02/13 05:01:19;;;;;;;5.55;0.93;;;;;;;1.75;54.37;100038.00;5073891;28;20107;-55
2022/02/13 05:03:45;;;;;;;1.90;0.55;;;;;;;1.81;54.09;100044.78;5073508;28;20028;-52
2022/02/13 05:06:11;;;;;;;7.68;0.80;;;;;;;1.82;53.84;100055.28;5073341;28;20376;-51
2022/02/13 05:08:37;;;;;;;4.20;0.70;;;;;;;1.82;54.37;100051.81;5073878;28;20029;-55
2022/02/13 05:11:02;;;;;;;3.55;1.02;;;;;;;1.76;54.01;100047.63;5073880;28;20036;-50
2022/02/13 05:13:28;;;;;;;1.95;0.82;;;;;;;1.87;54.50;100068.31;5073517;28;20481;-51
2022/02/13 05:15:53;;;;;;;1.70;0.60;;;;;;;1.91;54.03;100055.81;5072797;28;20085;-52
2022/02/13 05:18:19;;;;;;;4.10;1.10;;;;;;;1.92;53.94;100061.06;5073690;28;20036;-56
2022/02/13 05:20:44;;;;;;;3.22;0.82;;;;;;;1.94;54.06;100061.84;5073954;28;20068;-49
2022/02/13 05:23:10;;;;;;;2.80;0.85;;;;;;;1.90;54.23;100052.34;5073089;28;20121;-53
2022/02/13 05:25:36;;;;;;;3.58;0.80;;;;;;;2.00;53.74;100060.75;5072609;28;20025;-50
2022/02/13 05:28:01;;;;;;;2.08;0.60;;;;;;;2.01;53.51;100059.81;5073304;28;20040;-48
2022/02/13 05:30:27;;;;;;;1.73;0.75;;;;;;;2.01;53.62;100062.47;5073342;28;20059;-51
2022/02/13 05:32:52;;;;;;;4.93;0.52;;;;;;;2.06;53.56;100073.69;5072551;28;20029;-57
2022/02/13 05:35:18;;;;;;;3.95;0.77;;;;;;;2.06;53.91;100071.03;5072601;28;20035;-54
2022/02/13 05:37:43;;;;;;;2.78;0.93;;;;;;;2.06;53.77;100075.47;5073237;28;20111;-52
2022/02/13 05:40:10;;;;;;;1.65;0.60;;;;;;;2.06;53.61;100070.19;5073294;28;20075;-56
2022/02/13 05:42:35;;;;;;;4.18;1.35;;;;;;;2.11;53.26;100062.94;5072811;28;20040;-55
2022/02/13 05:45:02;;;;;;;4.32;0.75;;;;;;;2.16;53.49;100071.53;5072378;28;20029;-52
2022/02/13 05:47:29;;;;;;;3.17;0.80;;;;;;;2.13;53.50;100069.84;5073121;28;20059;-53
2022/02/13 05:49:55;;;;;;;3.85;1.00;;;;;;;2.20;53.03;100077.56;5073135;28;20029;-51
2022/02/13 05:52:20;;;;;;;3.10;0.75;;;;;;;2.23;53.00;100072.13;5073104;28;20028;-55
2022/02/13 05:54:45;;;;;;;3.38;0.70;;;;;;;2.24;53.17;100076.50;5072427;28;20036;-55
2022/02/13 05:57:11;;;;;;;4.35;1.00;;;;;;;2.32;52.60;100078.81;5072898;28;20471;-59
2022/02/13 05:59:37;;;;;;;4.70;0.93;;;;;;;2.29;53.08;100083.31;5072913;28;20466;-53
2022/02/13 06:02:03;;;;;;;2.80;0.90;;;;;;;2.37;52.45;100096.19;5072575;28;20028;-54
2022/02/13 06:04:28;;;;;;;3.67;0.85;;;;;;;2.34;52.67;100091.03;5072223;28;20032;-56
2022/02/13 06:06:55;;;;;;;3.63;0.90;;;;;;;2.36;52.65;100091.81;5072491;28;20041;-53
2022/02/13 06:09:22;;;;;;;3.40;0.90;;;;;;;2.39;52.78;100089.03;5072964;28;20033;-53
2022/02/13 06:11:49;;;;;;;2.33;0.82;;;;;;;2.27;52.67;100079.84;5072711;28;20030;-56
2022/02/13 06:14:14;;;;;;;2.95;1.02;;;;;;;2.39;52.95;100093.47;5053553;28;20081;-49
2022/02/13 06:16:40;;;;;;;7.45;1.30;;;;;;;2.36;52.66;100098.91;5072356;28;20537;-55
2022/02/13 06:19:06;;;;;;;4.30;1.00;;;;;;;2.37;52.68;100093.53;5072354;28;20393;-54
2022/02/13 06:21:32;;;;;;;6.13;1.00;;;;;;;2.37;52.46;100096.19;5072044;28;20103;-55
2022/02/13 06:23:58;;;;;;;4.15;0.90;;;;;;;2.36;52.52;100093.63;5071904;28;20036;-57
2022/02/13 06:26:25;;;;;;;2.63;0.88;;;;;;;2.41;52.45;100097.78;5071576;28;20595;-54
2022/02/13 06:28:51;;;;;;;4.28;1.08;;;;;;;2.50;52.35;100098.31;5072341;28;20127;-55
2022/02/13 06:31:16;;;;;;;5.85;0.88;;;;;;;2.58;51.93;100104.13;5072073;28;20482;-57
2022/02/13 06:33:42;;;;;;;6.40;1.33;;;;;;;2.64;52.04;100103.84;5071722;28;20035;-55
2022/02/13 06:36:08;;;;;;;4.38;1.05;;;;;;;2.63;51.96;100104.78;5071553;28;20044;-55
2022/02/13 06:38:34;;;;;;;2.88;1.10;;;;;;;2.73;51.62;100108.75;5071827;28;20458;-55
2022/02/13 06:40:59;;;;;;;5.68;1.20;;;;;;;2.77;51.90;100100.69;5071731;28;20029;-53
2022/02/13 06:43:25;;;;;;;2.75;1.10;;;;;;;2.83;51.47;100122.44;5071200;28;20052;-51
2022/02/13 06:45:50;;;;;;;6.13;1.35;;;;;;;2.91;51.85;100114.16;5071560;28;20024;-53
2022/02/13 06:48:16;;;;;;;6.78;1.30;;;;;;;2.92;51.67;100107.94;5072028;28;20108;-55
2022/02/13 06:50:41;;;;;;;3.83;1.10;;;;;;;3.03;51.21;100119.81;5071077;28;20385;-54
2022/02/13 06:53:07;;;;;;;5.97;1.20;;;;;;;3.11;50.70;100123.84;5071318;28;20040;-52
2022/02/13 06:55:33;;;;;;;4.88;1.10;;;;;;;3.15;51.09;100124.59;5071615;28;20024;-52
2022/02/13 06:57:58;;;;;;;5.75;1.35;;;;;;;3.18;51.09;100129.72;5071700;28;20043;-54
2022/02/13 07:00:25;;;;;;;4.97;1.00;;;;;;;3.24;50.85;100129.44;5071475;28;20037;-56
2022/02/13 07:02:50;;;;;;;4.68;1.60;;;;;;;3.34;50.85;100129.03;5053544;28;20066;-55
2022/02/13 07:05:16;;;;;;;3.15;1.50;;;;;;;3.28;50.35;100106.38;5071874;28;20036;-50
2022/02/13 07:07:42;;;;;;;4.32;1.80;;;;;;;3.30;50.67;100123.03;5070617;28;20024;-53
2022/02/13 07:10:11;;;;;;;4.90;1.70;;;;;;;3.18;50.77;100097.09;5070798;28;20088;-53
2022/02/13 07:12:38;;;;;;;5.38;1.95;;;;;;;3.32;50.39;100136.16;5071121;28;20102;-51
2022/02/13 07:15:07;;;;;;;6.28;1.75;;;;;;;3.34;50.62;100136.97;5071422;28;20474;-55
2022/02/13 07:17:34;;;;;;;5.93;1.20;;;;;;;3.34;50.30;100145.78;5070675;28;20048;-51
2022/02/13 07:20:00;;;;;;;4.40;1.10;;;;;;;3.33;50.32;100140.53;5060562;28;20397;-55
2022/02/13 07:22:25;;;;;;;5.60;1.40;;;;;;;3.28;50.66;100131.03;5051137;28;20033;-50
2022/02/13 07:24:51;;;;;;;3.65;0.90;;;;;;;3.35;50.39;100130.72;5051625;28;20757;-53
2022/02/13 07:27:17;;;;;;;4.78;0.88;;;;;;;3.33;50.00;100122.88;5051096;28;20419;-58
2022/02/13 07:29:43;;;;;;;6.85;0.90;;;;;;;3.44;49.77;100132.97;5050568;28;20029;-51
2022/02/13 07:32:09;;;;;;;5.18;1.10;;;;;;;3.45;50.22;100130.25;5060161;28;20024;-55
2022/02/13 07:34:35;;;;;;;3.60;1.10;;;;;;;3.56;50.16;100140.34;5071172;28;20398;-54
2022/02/13 07:37:02;;;;;;;4.25;1.42;;;;;;;3.71;49.92;100132.63;5071084;28;20074;-58
2022/02/13 07:39:32;;;;;;;6.68;1.42;;;;;;;3.85;49.66;100138.09;5070758;28;20021;-55
2022/02/13 07:41:57;;;;;;;6.70;1.70;;;;;;;3.88;48.82;100131.81;5070578;28;20359;-56
2022/02/13 07:44:24;;;;;;;6.70;1.52;;;;;;;3.92;49.09;100151.91;5070839;28;20102;-54
2022/02/13 07:46:49;;;;;;;4.15;1.05;;;;;;;3.96;49.06;100136.75;5070829;28;20111;-51
2022/02/13 07:49:15;;;;;;;3.35;1.17;;;;;;;4.12;48.74;100148.34;5070292;28;20550;-57
2022/02/13 07:51:41;;;;;;;6.07;1.48;;;;;;;4.11;48.87;100136.00;5070257;28;20104;-55
2022/02/13 07:54:07;;;;;;;4.97;1.40;;;;;;;4.21;48.58;100140.84;5071117;28;20112;-55
2022/02/13 07:56:32;;;;;;;6.85;1.40;;;;;;;4.26;48.21;100149.44;5069899;28;20373;-52
2022/02/13 07:58:58;;;;;;;6.55;1.17;;;;;;;4.33;47.95;100161.44;5070500;28;20028;-56
2022/02/13 08:01:24;;;;;;;7.70;1.38;;;;;;;4.39;48.00;100149.69;5070717;28;20028;-59
2022/02/13 08:03:50;;;;;;;4.18;1.10;;;;;;;4.49;47.57;100158.03;5070379;28;20032;-58
2022/02/13 08:06:18;;;;;;;5.88;1.40;;;;;;;4.31;48.16;100152.72;5070076;28;20032;-59
2022/02/13 08:08:45;;;;;;;6.82;1.58;;;;;;;4.38;48.52;100156.78;5069413;28;20029;-59
2022/02/13 08:11:10;;;;;;;4.03;1.23;;;;;;;4.49;47.94;100150.09;5069847;28;20039;-58
2022/02/13 08:13:36;;;;;;;4.85;1.50;;;;;;;4.48;47.97;100165.16;5070218;28;20024;-56
2022/02/13 08:16:02;;;;;;;3.67;1.23;;;;;;;4.58;47.77;100168.16;5070111;28;20036;-57
2022/02/13 08:18:28;;;;;;;4.18;1.27;;;;;;;4.64;47.74;100159.94;5070413;28;20116;-58
2022/02/13 08:20:56;;;;;;;4.55;1.17;;;;;;;4.62;47.70;100156.50;5070117;28;20546;-58
2022/02/13 08:23:23;;;;;;;3.78;1.10;;;;;;;4.76;47.21;100160.22;5069683;28;20037;-56
2022/02/13 08:25:49;;;;;;;6.90;1.38;;;;;;;4.84;47.33;100171.31;5070238;28;20484;-58
2022/02/13 08:28:15;;;;;;;4.40;1.30;;;;;;;5.14;46.67;100178.63;5069950;28;20050;-58
2022/02/13 08:30:41;;;;;;;5.65;1.80;;;;;;;5.48;46.16;100187.44;5051878;28;20490;-61
2022/02/13 08:33:07;;;;;;;4.90;1.30;;;;;;;5.51;45.77;100179.31;5070297;28;20397;-55
2022/02/13 08:35:33;;;;;;;6.10;1.08;;;;;;;5.48;45.99;100175.97;5069844;28;20396;-56
2022/02/13 08:38:03;;;;;;;2.53;0.80;;;;;;;5.52;45.43;100170.41;5052296;28;20032;-59
2022/02/13 08:40:30;;;;;;;2.03;0.95;;;;;;;5.68;45.51;100188.19;5070101;28;20029;-61
2022/02/13 08:42:57;;;;;;;5.88;1.30;;;;;;;5.71;45.26;100166.75;5070602;28;20029;-59
2022/02/13 08:45:22;;;;;;;3.70;1.08;;;;;;;5.85;44.81;100188.13;5069759;28;20485;-61
2022/02/13 08:47:48;;;;;;;9.40;1.15;;;;;;;6.08;44.71;100177.16;5069312;28;20112;-60
2022/02/13 08:50:13;;;;;;;5.15;0.82;;;;;;;6.25;44.67;100173.53;5070093;28;20120;-60
2022/02/13 08:52:39;;;;;;;4.72;1.30;;;;;;;6.41;43.71;100190.34;5070682;28;20111;-61
2022/02/13 08:55:05;;;;;;;4.00;1.20;;;;;;;6.49;43.25;100181.06;5069813;28;20393;-61
2022/02/13 08:57:30;;;;;;;4.28;1.25;;;;;;;6.35;43.76;100188.03;5070074;28;20111;-60
2022/02/13 08:59:56;;;;;;;4.25;1.27;;;;;;;6.21;43.96;100174.66;5069878;28;20115;-57
2022/02/13 09:02:21;;;;;;;2.55;1.13;;;;;;;6.12;44.85;100181.34;5052307;28;20032;-60
2022/02/13 09:04:47;;;;;;;5.18;1.02;;;;;;;6.27;44.43;100180.50;5069614;28;20039;-59
2022/02/13 09:07:12;;;;;;;4.53;1.30;;;;;;;6.41;43.48;100184.19;5069850;28;20120;-60
2022/02/13 09:09:41;;;;;;;4.20;1.35;;;;;;;6.40;43.60;100171.84;5073611;28;20025;-61
2022/02/13 09:12:07;;;;;;;5.40;1.88;;;;;;;6.29;43.42;100159.16;5073371;28;20036;-61
2022/02/13 09:14:32;;;;;;;4.97;1.08;;;;;;;6.05;43.96;100180.88;5072868;28;20036;-59
2022/02/13 09:16:58;;;;;;;3.90;1.23;;;;;;;5.90;44.28;100177.22;5073002;28;20178;-60
2022/02/13 09:19:23;;;;;;;4.05;1.08;;;;;;;5.64;44.71;100171.53;5073865;28;20044;-60
2022/02/13 09:21:52;;;;;;;6.03;1.38;;;;;;;5.69;44.76;100179.25;5073553;28;20628;-60
2022/02/13 09:24:21;;;;;;;5.20;1.15;;;;;;;5.86;44.29;100181.84;5072070;28;20048;-59
2022/02/13 09:26:47;;;;;;;3.58;1.40;;;;;;;5.66;44.56;100192.72;5071429;28;20028;-58
2022/02/13 09:29:13;;;;;;;6.82;1.58;;;;;;;5.55;45.06;100175.56;5072095;28;20035;-61
2022/02/13 09:31:39;;;;;;;3.13;1.40;;;;;;;5.65;44.94;100180.38;5071968;28;20198;-60
2022/02/13 09:34:04;;;;;;;5.90;1.38;;;;;;;5.72;45.11;100189.72;5070951;28;20413;-59
2022/02/13 09:36:30;;;;;;;6.80;1.60;;;;;;;5.66;44.45;100201.53;5049596;28;20025;-59
2022/02/13 09:38:55;;;;;;;6.53;1.65;;;;;;;5.51;45.36;100194.41;5066654;28;20112;-56
2022/02/13 09:41:21;;;;;;;3.30;1.20;;;;;;;5.38;45.34;100202.16;5072184;28;20391;-58
2022/02/13 09:43:47;;;;;;;6.80;1.50;;;;;;;5.37;45.24;100203.09;5071838;28;20113;-57
2022/02/13 09:46:14;;;;;;;4.63;0.80;;;;;;;5.27;45.33;100200.06;5072104;28;20487;-58
2022/02/13 09:48:40;;;;;;;6.78;0.93;;;;;;;5.20;45.55;100204.84;5054020;28;20029;-59
2022/02/13 09:51:06;;;;;;;5.38;1.17;;;;;;;5.16;45.96;100187.38;5071866;28;20036;-61
2022/02/13 09:53:34;;;;;;;3.35;1.10;;;;;;;5.20;45.95;100199.53;5072158;28;20048;-58
2022/02/13 09:56:05;;;;;;;5.90;1.58;;;;;;;5.22;45.86;100195.00;5051421;28;20036;-60
2022/02/13 09:58:31;;;;;;;2.67;0.90;;;;;;;5.19;45.72;100187.19;5053681;28;20375;-59
2022/02/13 10:00:56;;;;;;;3.67;1.25;;;;;;;5.23;45.66;100199.38;5069556;28;20028;-59
2022/02/13 10:03:29;;;;;;;2.22;1.00;;;;;;;5.32;45.65;100201.56;5069260;28;20366;-59
2022/02/13 10:05:58;;;;;;;5.22;1.35;;;;;;;5.30;45.77;100205.22;5071432;28;20446;-60
2022/02/13 10:08:30;;;;;;;5.15;1.33;;;;;;;5.26;45.71;100182.44;5071293;28;20144;-57
2022/02/13 10:11:09;;;;;;;6.40;1.45;;;;;;;5.44;46.07;100208.03;5063546;28;20389;-56
2022/02/13 10:13:55;;;;;;;4.30;1.50;;;;;;;5.50;45.63;100203.31;5069058;28;20033;-57
2022/02/13 10:16:24;;;;;;;4.45;1.40;;;;;;;5.51;45.40;100208.53;5070616;28;20079;-60
2022/02/13 10:18:53;;;;;;;3.35;1.27;;;;;;;5.43;45.26;100198.34;5067492;28;20466;-61
2022/02/13 10:21:28;;;;;;;4.30;1.50;;;;;;;5.51;45.84;100207.69;5071974;28;20025;-59
2022/02/13 10:24:29;;;;;;;6.47;1.30;;;;;;;5.56;45.17;100203.84;5069386;28;20025;-61
2022/02/13 10:26:57;;;;;;;6.00;1.17;;;;;;;5.46;45.28;100200.81;5069039;28;20115;-58
2022/02/13 10:29:29;;;;;;;6.25;1.27;;;;;;;5.45;45.06;100206.22;5071536;28;20043;-61
2022/02/13 10:32:17;;;;;;;2.17;0.95;;;;;;;5.49;45.42;100202.44;5053986;28;20440;-61
2022/02/13 10:35:03;;;;;;;4.93;1.20;;;;;;;5.41;45.85;100178.94;5070181;28;20035;-62
2022/02/13 10:37:58;;;;;;;5.18;1.48;;;;;;;5.51;45.57;100194.41;5071085;28;20020;-59
2022/02/13 10:40:28;;;;;;;4.18;1.20;;;;;;;5.46;45.38;100197.28;5070837;28;20028;-60
2022/02/13 10:43:10;;;;;;;7.50;1.58;;;;;;;5.53;45.75;100189.88;5050616;28;20412;-60
2022/02/13 10:45:40;;;;;;;6.88;1.30;;;;;;;5.32;45.81;100166.16;5071307;28;20093;-58
2022/02/13 10:48:08;;;;;;;7.60;1.73;;;;;;;5.58;45.83;100203.75;5071713;28;20021;-55
2022/02/13 10:50:40;;;;;;;4.70;1.17;;;;;;;5.64;45.41;100203.41;5070461;28;20470;-60
2022/02/13 10:53:07;;;;;;;5.10;1.35;;;;;;;5.69;45.19;100211.16;5069323;28;20150;-57
2022/02/13 10:55:36;;;;;;;2.15;1.02;;;;;;;5.48;45.52;100182.13;5071381;28;20025;-57
2022/02/13 10:58:02;;;;;;;2.95;1.15;;;;;;;5.54;45.70;100202.22;5068272;28;20536;-61
2022/02/13 11:00:30;;;;;;;5.88;1.10;;;;;;;5.51;46.05;100197.91;5070580;28;20020;-60
2022/02/13 11:03:00;;;;;;;3.67;1.25;;;;;;;5.51;46.35;100192.59;5052067;28;20114;-56
2022/02/13 11:05:29;;;;;;;5.00;1.40;;;;;;;5.40;46.26;100187.84;5071055;28;20459;-56
2022/02/13 11:08:01;;;;;;;3.60;1.15;;;;;;;5.46;46.11;100184.03;5052870;28;20049;-61
2022/02/13 11:10:36;;;;;;;2.33;1.10;;;;;;;5.58;46.21;100188.69;5070686;28;20058;-60
2022/02/13 11:13:03;;;;;;;6.50;1.85;;;;;;;5.57;45.76;100186.97;5068213;28;20032;-58
2022/02/13 11:15:31;;;;;;;3.47;1.15;;;;;;;5.52;45.73;100189.00;5071065;28;20032;-55
2022/02/13 11:18:07;;;;;;;4.90;1.25;;;;;;;5.50;46.11;100195.34;5070625;28;20037;-57
2022/02/13 11:20:35;;;;;;;2.80;1.08;;;;;;;5.39;45.43;100193.25;5051164;28;20028;-59
2022/02/13 11:23:21;;;;;;;4.97;1.30;;;;;;;5.42;45.76;100193.09;5070587;28;20024;-57
2022/02/13 11:25:51;;;;;;;4.18;1.15;;;;;;;5.32;46.57;100198.91;5068751;28;20436;-59
2022/02/13 11:28:18;;;;;;;5.15;1.30;;;;;;;5.26;46.67;100193.91;5070219;28;20036;-57
2022/02/13 11:30:47;;;;;;;3.25;1.10;;;;;;;5.30;46.23;100195.47;5067062;28;20028;-59
2022/02/13 11:33:35;;;;;;;3.28;1.15;;;;;;;5.20;46.29;100165.03;5070372;28;20024;-56
2022/02/13 11:36:09;;;;;;;3.78;0.90;;;;;;;5.43;45.79;100201.00;5070321;28;20473;-57